sensor_id;sensor_type;location;lat;lon;timestamp;pressure;altitude;pressure_sealevel;temperature;humidity
76331;BME280;65148;51.912;15.570;2023-02-02T00:06:58;100661.07;;;3.39;100.00
76331;BME280;65148;51.912;15.570;2023-02-02T00:22:00;100675.53;;;3.50;100.00
76331;BME280;65148;51.912;15.570;2023-02-02T00:37:00;100661.84;;;3.68;99.37
76331;BME280;65148;51.912;15.570;2023-02-02T00:52:02;100648.80;;;3.60;98.79
76331;BME280;65148;51.912;15.570;2023-02-02T01:07:18;100643.11;;;3.56;98.35
76331;BME280;65148;51.912;15.570;2023-02-02T01:22:18;100627.95;;;3.67;97.92
76331;BME280;65148;51.912;15.570;2023-02-02T01:37:19;100626.20;;;3.61;97.41
76331;BME280;65148;51.912;15.570;2023-02-02T01:52:24;100602.13;;;4.04;94.04
76331;BME280;65148;51.912;15.570;2023-02-02T02:07:41;100590.81;;;3.86;97.58
76331;BME280;65148;51.912;15.570;2023-02-02T02:38:47;100555.50;;;3.65;98.57
76331;BME280;65148;51.912;15.570;2023-02-02T02:53:47;100552.38;;;4.29;93.95
76331;BME280;65148;51.912;15.570;2023-02-02T03:08:57;100553.03;;;3.97;94.65
76331;BME280;65148;51.912;15.570;2023-02-02T03:24:09;100549.76;;;3.95;95.22
76331;BME280;65148;51.912;15.570;2023-02-02T03:39:10;100549.03;;;4.00;97.94
76331;BME280;65148;51.912;15.570;2023-02-02T03:54:11;100553.36;;;3.84;100.00
76331;BME280;65148;51.912;15.570;2023-02-02T04:09:12;100561.61;;;3.61;100.00
76331;BME280;65148;51.912;15.570;2023-02-02T04:24:27;100591.09;;;3.68;100.00
76331;BME280;65148;51.912;15.570;2023-02-02T04:39:28;100609.17;;;3.72;100.00
76331;BME280;65148;51.912;15.570;2023-02-02T04:54:32;100612.67;;;3.73;100.00
76331;BME280;65148;51.912;15.570;2023-02-02T05:09:33;100639.11;;;3.92;100.00
76331;BME280;65148;51.912;15.570;2023-02-02T05:24:45;100683.77;;;3.88;100.00
76331;BME280;65148;51.912;15.570;2023-02-02T05:39:46;100705.00;;;4.18;100.00
76331;BME280;65148;51.912;15.570;2023-02-02T05:54:51;100756.25;;;4.57;97.79
76331;BME280;65148;51.912;15.570;2023-02-02T06:09:52;100770.95;;;4.66;97.09
76331;BME280;65148;51.912;15.570;2023-02-02T06:25:09;100803.88;;;4.68;95.33
76331;BME280;65148;51.912;15.570;2023-02-02T06:40:11;100829.73;;;4.64;95.65
76331;BME280;65148;51.912;15.570;2023-02-02T06:55:13;100878.08;;;4.54;95.23
76331;BME280;65148;51.912;15.570;2023-02-02T07:10:15;100892.80;;;4.63;94.50
76331;BME280;65148;51.912;15.570;2023-02-02T07:25:31;100929.84;;;4.56;95.30
76331;BME280;65148;51.912;15.570;2023-02-02T07:40:32;100945.39;;;4.65;93.53
76331;BME280;65148;51.912;15.570;2023-02-02T07:55:33;100983.60;;;4.74;93.67
76331;BME280;65148;51.912;15.570;2023-02-02T08:10:34;101032.30;;;4.56;98.00
76331;BME280;65148;51.912;15.570;2023-02-02T08:26:10;101072.84;;;3.97;100.00
76331;BME280;65148;51.912;15.570;2023-02-02T08:41:13;101104.91;;;4.22;100.00
76331;BME280;65148;51.912;15.570;2023-02-02T08:56:17;101114.16;;;4.03;100.00
76331;BME280;65148;51.912;15.570;2023-02-02T09:11:44;101135.87;;;3.43;100.00
76331;BME280;65148;51.912;15.570;2023-02-02T09:26:45;101166.92;;;3.69;100.00
76331;BME280;65148;51.912;15.570;2023-02-02T09:57:25;101212.96;;;3.68;100.00
76331;BME280;65148;51.912;15.570;2023-02-02T10:12:35;101211.76;;;3.15;100.00
76331;BME280;65148;51.912;15.570;2023-02-02T10:43:20;101228.95;;;3.62;100.00
76331;BME280;65148;51.912;15.570;2023-02-02T10:58:45;101246.77;;;4.05;100.00
76331;BME280;65148;51.912;15.570;2023-02-02T11:14:14;101248.90;;;4.15;100.00
76331;BME280;65148;51.912;15.570;2023-02-02T11:29:26;101253.28;;;4.86;100.00
76331;BME280;65148;51.912;15.570;2023-02-02T11:44:29;101270.52;;;5.48;100.00
76331;BME280;65148;51.912;15.570;2023-02-02T11:59:46;101327.27;;;5.01;96.42
76331;BME280;65148;51.912;15.570;2023-02-02T13:15:56;101426.23;;;4.36;93.98
76331;BME280;65148;51.912;15.570;2023-02-02T13:31:17;101438.81;;;4.42;94.45
76331;BME280;65148;51.912;15.570;2023-02-02T14:01:43;101516.67;;;4.50;90.38
76331;BME280;65148;51.912;15.570;2023-02-02T14:16:48;101537.38;;;4.68;87.49
76331;BME280;65148;51.912;15.570;2023-02-02T14:32:27;101584.48;;;4.84;84.24
76331;BME280;65148;51.912;15.570;2023-02-02T15:02:42;101685.60;;;3.63;76.98
76331;BME280;65148;51.912;15.570;2023-02-02T15:18:05;101728.39;;;3.40;76.67
76331;BME280;65148;51.912;15.570;2023-02-02T15:33:22;101767.61;;;3.16;77.39
76331;BME280;65148;51.912;15.570;2023-02-02T16:19:20;101885.34;;;2.29;78.08
76331;BME280;65148;51.912;15.570;2023-02-02T16:34:42;101922.05;;;2.02;78.37
76331;BME280;65148;51.912;15.570;2023-02-02T16:49:45;101953.63;;;1.93;79.43
76331;BME280;65148;51.912;15.570;2023-02-02T17:04:49;101985.78;;;1.80;80.93
76331;BME280;65148;51.912;15.570;2023-02-02T17:20:17;102022.41;;;1.60;82.27
76331;BME280;65148;51.912;15.570;2023-02-02T17:35:21;102049.37;;;1.52;84.09
76331;BME280;65148;51.912;15.570;2023-02-02T17:50:22;102096.34;;;1.41;85.80
76331;BME280;65148;51.912;15.570;2023-02-02T18:05:23;102109.47;;;1.29;86.73
76331;BME280;65148;51.912;15.570;2023-02-02T18:20:46;102120.62;;;1.12;87.89
76331;BME280;65148;51.912;15.570;2023-02-02T18:35:47;102151.44;;;1.01;88.29
76331;BME280;65148;51.912;15.570;2023-02-02T18:50:48;102143.91;;;1.11;87.79
76331;BME280;65148;51.912;15.570;2023-02-02T19:05:50;102164.63;;;1.17;87.41
76331;BME280;65148;51.912;15.570;2023-02-02T19:21:16;102178.25;;;1.37;86.32
76331;BME280;65148;51.912;15.570;2023-02-02T19:36:20;102188.03;;;1.44;85.98
76331;BME280;65148;51.912;15.570;2023-02-02T19:51:32;102186.76;;;1.40;86.21
76331;BME280;65148;51.912;15.570;2023-02-02T20:06:58;102210.76;;;1.27;86.24
76331;BME280;65148;51.912;15.570;2023-02-02T20:22:00;102219.77;;;1.05;86.23
76331;BME280;65148;51.912;15.570;2023-02-02T20:52:43;102232.65;;;0.13;90.66
76331;BME280;65148;51.912;15.570;2023-02-02T21:07:44;102241.91;;;0.11;91.39
76331;BME280;65148;51.912;15.570;2023-02-02T21:22:45;102246.42;;;0.10;90.97
76331;BME280;65148;51.912;15.570;2023-02-02T21:37:54;102255.33;;;0.03;90.62
76331;BME280;65148;51.912;15.570;2023-02-02T21:53:21;102240.95;;;-0.42;93.13
76331;BME280;65148;51.912;15.570;2023-02-02T22:08:24;102239.24;;;-0.35;92.67
76331;BME280;65148;51.912;15.570;2023-02-02T22:23:27;102226.33;;;-0.31;92.79
76331;BME280;65148;51.912;15.570;2023-02-02T22:38:28;102244.42;;;-0.33;92.54
76331;BME280;65148;51.912;15.570;2023-02-02T22:53:47;102236.92;;;-0.38;93.87
76331;BME280;65148;51.912;15.570;2023-02-02T23:08:48;102237.75;;;-0.15;93.29
76331;BME280;65148;51.912;15.570;2023-02-02T23:23:49;102226.56;;;-0.18;93.10
76331;BME280;65148;51.912;15.570;2023-02-02T23:38:50;102229.72;;;-0.15;94.12
76331;BME280;65148;51.912;15.570;2023-02-02T23:54:16;102210.16;;;-0.15;93.94
